Time;durP1;ratioP1;P1;durP2;ratioP2;P2;SDS_P1;SDS_P2;PMS_P1;PMS_P2;Temp;Humidity;BMP_temperature;BMP_pressure;BME280_temperature;BME280_humidity;BME280_pressure;Samples;Min_cycle;Max_cycle;Signal;HPM_P1;HPM_P2
2021/07/01 00:00:07;;;;;;;17.68;15.89;;;;;;;20.92;68.19;100495.39;423631;122;930537;-75
2021/07/01 00:01:11;;;;;;;17.22;15.33;;;;;;;20.88;68.17;100488.77;428616;121;930492;-77
2021/07/01 00:02:14;;;;;;;16.24;14.43;;;;;;;20.85;68.19;100489.33;436151;119;922563;-75
2021/07/01 00:03:18;;;;;;;16.57;14.41;;;;;;;20.84;68.20;100484.89;436155;119;930621;-76
2021/07/01 00:04:22;;;;;;;15.66;13.95;;;;;;;20.84;68.20;100484.09;433339;120;930535;-76
2021/07/01 00:05:25;;;;;;;15.43;13.62;;;;;;;20.85;68.16;100481.02;433066;120;924194;-75
2021/07/01 00:06:29;;;;;;;13.92;12.59;;;;;;;20.87;68.14;100486.28;433849;120;923982;-75
2021/07/01 00:07:33;;;;;;;13.53;12.19;;;;;;;20.86;68.05;100482.67;434053;120;924174;-78
2021/07/01 00:08:38;;;;;;;16.29;12.81;;;;;;;20.85;67.98;100489.33;433028;122;923207;-75
2021/07/01 00:09:41;;;;;;;13.64;12.01;;;;;;;20.84;67.94;100489.63;433551;120;924364;-75
2021/07/01 00:10:45;;;;;;;12.13;11.05;;;;;;;20.83;67.94;100487.97;431511;120;933029;-73
2021/07/01 00:11:50;;;;;;;13.81;11.74;;;;;;;20.81;67.98;100482.70;430310;120;931798;-75
2021/07/01 00:12:55;;;;;;;13.21;11.34;;;;;;;20.80;68.02;100484.64;430506;120;931913;-75
2021/07/01 00:13:59;;;;;;;12.87;11.65;;;;;;;20.81;68.02;100479.93;432903;120;922981;-74
2021/07/01 00:15:05;;;;;;;13.46;12.25;;;;;;;20.82;68.10;100481.59;432368;120;924083;-75
2021/07/01 00:16:09;;;;;;;13.72;11.87;;;;;;;20.83;68.13;100479.66;431742;120;931780;-74
2021/07/01 00:17:13;;;;;;;12.94;11.51;;;;;;;20.84;68.10;100482.12;431114;120;926535;-73
2021/07/01 00:18:16;;;;;;;12.06;10.92;;;;;;;20.86;68.04;100474.36;432318;120;931805;-74
2021/07/01 00:19:22;;;;;;;14.33;11.29;;;;;;;20.85;68.00;100461.61;432222;120;924036;-76
2021/07/01 00:20:26;;;;;;;12.31;11.13;;;;;;;20.83;67.97;100458.31;433079;120;930359;-76
2021/07/01 00:21:29;;;;;;;12.09;10.38;;;;;;;20.83;67.95;100463.86;432629;120;924247;-74
2021/07/01 00:22:33;;;;;;;10.97;9.94;;;;;;;20.82;67.97;100464.97;432050;120;924113;-75
2021/07/01 00:23:36;;;;;;;11.64;10.28;;;;;;;20.79;67.92;100460.81;433083;120;930054;-74
2021/07/01 00:24:40;;;;;;;9.95;9.05;;;;;;;20.78;67.92;100459.14;433428;120;922595;-75
2021/07/01 00:25:45;;;;;;;13.45;10.36;;;;;;;20.76;67.94;100463.33;433622;120;923764;-75
2021/07/01 00:26:49;;;;;;;10.46;9.38;;;;;;;20.75;67.95;100472.75;433543;120;932287;-75
2021/07/01 00:27:52;;;;;;;9.81;8.68;;;;;;;20.72;67.98;100465.86;433490;120;925478;-75
2021/07/01 00:28:56;;;;;;;11.92;9.24;;;;;;;20.70;67.95;100472.78;434245;120;931694;-76
2021/07/01 00:30:00;;;;;;;9.64;8.69;;;;;;;20.69;67.95;100465.58;431967;120;924004;-76
2021/07/01 00:31:03;;;;;;;8.86;8.07;;;;;;;20.66;67.99;100468.93;431440;120;929479;-76
2021/07/01 00:32:07;;;;;;;9.35;8.24;;;;;;;20.65;68.06;100467.27;433260;120;931001;-76
2021/07/01 00:33:11;;;;;;;9.26;8.38;;;;;;;20.64;68.08;100462.83;431845;120;930593;-75
2021/07/01 00:34:15;;;;;;;10.73;7.96;;;;;;;20.64;68.05;100468.38;431171;120;922551;-75
2021/07/01 00:35:18;;;;;;;8.50;7.67;;;;;;;20.62;68.04;100465.08;431177;120;930780;-74
2021/07/01 00:36:23;;;;;;;8.81;8.00;;;;;;;20.62;68.02;100465.88;432223;120;930591;-76
2021/07/01 00:37:29;;;;;;;8.42;7.59;;;;;;;20.62;68.09;100465.88;431905;120;922762;-73
2021/07/01 00:38:32;;;;;;;11.74;7.58;;;;;;;20.65;68.11;100467.27;432047;120;922529;-76
2021/07/01 00:39:36;;;;;;;10.76;9.01;;;;;;;20.68;68.14;100467.52;431399;120;922555;-75
2021/07/01 00:40:40;;;;;;;13.40;9.16;;;;;;;20.72;68.17;100462.25;433403;120;922291;-76
2021/07/01 00:41:43;;;;;;;11.14;8.31;;;;;;;20.76;68.12;100466.10;433653;120;922591;-76
2021/07/01 00:42:47;;;;;;;9.96;8.50;;;;;;;20.80;68.00;100467.19;433669;119;930595;-76
2021/07/01 00:43:51;;;;;;;8.61;7.75;;;;;;;20.81;67.85;100464.14;433545;120;930042;-76
2021/07/01 00:44:54;;;;;;;10.41;8.83;;;;;;;20.83;67.72;100471.34;433579;120;922941;-76
2021/07/01 00:45:58;;;;;;;8.07;7.30;;;;;;;20.80;67.67;100473.55;434144;120;930443;-76
2021/07/01 00:47:04;;;;;;;10.82;8.87;;;;;;;20.78;67.65;100472.20;434326;120;930507;-75
2021/07/01 00:48:08;;;;;;;10.01;7.56;;;;;;;20.75;67.72;100472.75;434668;120;922418;-75
2021/07/01 00:49:11;;;;;;;10.57;7.98;;;;;;;20.73;67.79;100463.92;431662;120;922717;-76
2021/07/01 00:50:16;;;;;;;12.73;8.45;;;;;;;20.72;67.85;100473.34;430412;120;930693;-76
2021/07/01 00:51:20;;;;;;;10.34;8.59;;;;;;;20.70;67.96;100470.84;432028;120;930073;-76
2021/07/01 00:52:24;;;;;;;10.67;7.88;;;;;;;20.67;68.16;100476.13;422035;122;922585;-75
2021/07/01 00:53:27;;;;;;;16.46;8.33;;;;;;;20.66;68.35;100468.93;423722;122;924534;-75
2021/07/01 00:54:31;;;;;;;9.31;8.31;;;;;;;20.63;68.51;100470.31;424245;122;931580;-74
2021/07/01 00:55:36;;;;;;;11.47;7.98;;;;;;;20.60;68.63;100470.89;423300;122;924575;-75
2021/07/01 00:56:41;;;;;;;8.82;7.94;;;;;;;20.60;68.83;100473.66;431514;122;932636;-75
2021/07/01 00:57:44;;;;;;;9.79;6.76;;;;;;;20.62;68.97;100465.08;432048;119;924316;-76
2021/07/01 00:58:52;;;;;;;11.59;8.01;;;;;;;20.64;69.04;100473.91;432209;120;922535;-75
2021/07/01 00:59:56;;;;;;;12.08;8.11;;;;;;;20.67;69.05;100465.88;430196;120;924159;-76
2021/07/01 01:01:03;;;;;;;17.21;8.07;;;;;;;20.69;69.06;100468.34;431424;120;924063;-75
2021/07/01 01:02:06;;;;;;;7.78;7.01;;;;;;;20.70;69.02;100468.07;431378;120;925367;-74
2021/07/01 01:03:10;;;;;;;10.53;7.30;;;;;;;20.71;69.02;100471.67;431490;120;927008;-74
2021/07/01 01:04:14;;;;;;;10.30;6.78;;;;;;;20.70;69.00;100468.07;431854;120;924180;-75
2021/07/01 01:05:18;;;;;;;10.58;7.82;;;;;;;20.68;69.06;100477.77;432116;120;926192;-76
2021/07/01 01:06:22;;;;;;;12.02;7.69;;;;;;;20.66;69.10;100482.78;426473;122;930700;-76
2021/07/01 01:07:26;;;;;;;9.78;8.26;;;;;;;20.64;69.19;100483.05;426625;122;924083;-75
2021/07/01 01:08:30;;;;;;;10.96;9.91;;;;;;;20.62;69.31;100478.93;433182;120;924046;-76
2021/07/01 01:09:34;;;;;;;11.41;9.15;;;;;;;20.60;69.34;100476.44;433691;122;924056;-77
2021/07/01 01:10:38;;;;;;;13.49;9.06;;;;;;;20.59;69.38;100477.54;430950;120;923876;-75
2021/07/01 01:11:49;;;;;;;10.04;9.04;;;;;;;20.61;69.44;100480.87;412548;120;924592;-73
2021/07/01 01:12:53;;;;;;;9.97;8.43;;;;;;;20.65;69.46;100481.13;430885;120;924239;-74
2021/07/01 01:13:57;;;;;;;9.84;8.85;;;;;;;20.67;69.45;100476.97;423910;122;925978;-76
2021/07/01 01:15:09;;;;;;;11.36;9.78;;;;;;;20.69;69.38;100471.12;434237;117;924050;-76
2021/07/01 01:16:13;;;;;;;9.32;8.46;;;;;;;20.72;69.30;100473.34;443176;117;922613;-76
2021/07/01 01:17:18;;;;;;;9.58;8.51;;;;;;;20.74;69.17;100476.63;440723;116;923214;-73
2021/07/01 01:18:23;;;;;;;12.58;9.41;;;;;;;20.76;69.10;100477.19;442352;117;924659;-75
2021/07/01 01:19:27;;;;;;;8.40;7.63;;;;;;;20.75;69.04;100469.98;443897;116;922818;-76
2021/07/01 01:20:32;;;;;;;9.84;8.12;;;;;;;20.74;69.01;100471.92;444847;116;922811;-75
2021/07/01 01:21:38;;;;;;;11.91;8.61;;;;;;;20.74;68.98;100468.32;443464;116;924268;-76
2021/07/01 01:22:41;;;;;;;10.53;8.83;;;;;;;20.73;68.99;100472.23;441942;117;927732;-74
2021/07/01 01:23:45;;;;;;;9.45;8.13;;;;;;;20.73;69.01;100470.26;444888;116;932098;-75
2021/07/01 01:24:48;;;;;;;11.20;8.38;;;;;;;20.75;69.10;100481.06;444414;116;932633;-74
2021/07/01 01:25:58;;;;;;;18.87;8.34;;;;;;;20.77;69.10;100471.37;444783;116;934220;-76
2021/07/01 01:27:04;;;;;;;10.38;8.55;;;;;;;20.82;69.08;100476.05;444025;116;925075;-75
2021/07/01 01:28:07;;;;;;;11.48;8.82;;;;;;;20.86;68.97;100477.13;444811;116;925100;-75
2021/07/01 01:29:11;;;;;;;10.76;8.86;;;;;;;20.89;68.88;100470.20;445575;116;924065;-75
2021/07/01 01:30:19;;;;;;;9.23;8.41;;;;;;;20.92;68.79;100467.67;436927;119;932025;-74
2021/07/01 01:31:24;;;;;;;11.54;9.20;;;;;;;20.93;68.72;100463.80;437439;119;923211;-75
2021/07/01 01:32:28;;;;;;;11.36;8.17;;;;;;;20.96;68.70;100460.44;444060;116;922944;-75
2021/07/01 01:33:32;;;;;;;10.18;9.19;;;;;;;20.99;68.66;100462.66;444123;116;922560;-75
2021/07/01 01:34:36;;;;;;;9.96;9.05;;;;;;;21.05;68.60;100467.05;434060;120;923337;-75
2021/07/01 01:35:40;;;;;;;9.51;8.58;;;;;;;21.08;68.45;100469.23;433460;119;922964;-76
2021/07/01 01:36:45;;;;;;;14.69;8.85;;;;;;;21.10;68.26;100467.02;444286;116;923397;-77
2021/07/01 01:37:48;;;;;;;9.22;8.13;;;;;;;21.12;68.14;100469.48;444010;116;931346;-73
2021/07/01 01:38:52;;;;;;;8.84;7.97;;;;;;;21.13;68.07;100474.75;444175;117;932012;-74
2021/07/01 01:40:07;;;;;;;9.67;8.30;;;;;;;21.14;68.00;100470.03;440852;117;932860;-74
2021/07/01 01:41:11;;;;;;;10.12;7.96;;;;;;;21.14;67.92;100476.44;443178;114;924577;-76
2021/07/01 01:42:15;;;;;;;8.01;7.27;;;;;;;21.14;67.82;100475.58;443933;105;923354;-76
2021/07/01 01:43:22;;;;;;;9.89;7.11;;;;;;;21.12;67.75;100475.86;437360;118;922601;-76
2021/07/01 01:44:25;;;;;;;9.39;6.87;;;;;;;21.10;67.76;100478.11;437384;118;923040;-76
2021/07/01 01:45:29;;;;;;;7.90;6.67;;;;;;;21.11;67.66;100476.17;432120;120;922753;-76
2021/07/01 01:46:38;;;;;;;8.77;6.16;;;;;;;21.11;67.59;100477.00;432864;120;922632;-76
2021/07/01 01:47:50;;;;;;;11.82;7.26;;;;;;;21.12;67.50;100470.31;439718;117;923289;-75
2021/07/01 01:48:54;;;;;;;11.41;6.51;;;;;;;21.14;67.44;100475.58;439229;118;923370;-73
2021/07/01 01:49:58;;;;;;;7.32;6.51;;;;;;;21.14;67.41;100476.44;438986;118;924119;-75
2021/07/01 01:51:04;;;;;;;9.51;7.14;;;;;;;21.15;67.37;100474.50;439079;118;924422;-75
2021/07/01 01:52:08;;;;;;;7.74;6.78;;;;;;;21.16;67.34;100470.63;438863;118;924633;-75
2021/07/01 01:53:13;;;;;;;10.24;7.05;;;;;;;21.14;67.34;100476.44;437328;118;922800;-74
2021/07/01 01:54:16;;;;;;;11.04;7.21;;;;;;;21.15;67.33;100471.73;435376;118;922771;-76
2021/07/01 01:55:21;;;;;;;14.69;8.41;;;;;;;21.15;67.30;100469.78;428107;119;930623;-76
2021/07/01 01:56:36;;;;;;;10.07;7.92;;;;;;;21.16;67.29;100468.68;429049;120;922667;-74
2021/07/01 01:57:31;;;;;;;9.77;7.18;;;;;;;21.17;67.25;100469.51;434223;119;927009;-76
2021/07/01 01:58:55;;;;;;;8.47;7.59;;;;;;;21.18;67.22;100468.37;433814;118;924151;-75
2021/07/01 02:00:21;;;;;;;8.41;6.27;;;;;;;21.18;67.16;100477.52;436848;118;926674;-75
2021/07/01 02:01:34;;;;;;;7.46;6.82;;;;;;;21.18;67.16;100469.20;436525;118;924040;-75
2021/07/01 02:02:42;;;;;;;7.74;6.08;;;;;;;21.17;67.10;100461.98;435743;118;924541;-75
2021/07/01 02:03:47;;;;;;;7.78;5.58;;;;;;;21.16;67.05;100465.91;436441;118;924912;-76
2021/07/01 02:04:52;;;;;;;7.20;5.88;;;;;;;21.15;67.05;100463.41;437313;118;927044;-75
2021/07/01 02:05:58;;;;;;;7.32;5.86;;;;;;;21.14;67.06;100470.90;437160;118;924587;-76
2021/07/01 02:07:02;;;;;;;6.67;5.85;;;;;;;21.13;67.08;100466.44;438253;118;924591;-76
2021/07/01 02:08:10;;;;;;;8.69;5.44;;;;;;;21.12;67.14;100470.31;432318;118;927238;-75
2021/07/01 02:09:13;;;;;;;7.49;5.06;;;;;;;21.14;67.13;100464.48;438517;118;924076;-74
2021/07/01 02:10:28;;;;;;;6.53;5.03;;;;;;;21.14;67.10;100458.95;438272;118;931861;-76
2021/07/01 02:11:32;;;;;;;7.92;4.54;;;;;;;21.14;67.06;100462.58;438572;118;924264;-76
2021/07/01 02:12:36;;;;;;;5.03;4.12;;;;;;;21.15;67.03;100463.41;438079;118;932485;-74
2021/07/01 02:13:40;;;;;;;5.46;4.73;;;;;;;21.15;67.01;100467.02;438897;117;924675;-74
2021/07/01 02:15:06;;;;;;;6.72;5.33;;;;;;;21.17;66.99;100472.28;439656;118;925520;-74
2021/07/01 02:16:17;;;;;;;9.00;5.45;;;;;;;21.17;66.96;100473.08;430026;118;924325;-76
2021/07/01 02:17:21;;;;;;;11.39;6.15;;;;;;;21.17;67.02;100475.86;437906;118;924057;-75
2021/07/01 02:18:25;;;;;;;7.42;5.04;;;;;;;21.18;67.00;100474.75;428163;121;932010;-75
2021/07/01 02:19:29;;;;;;;7.41;4.94;;;;;;;21.18;66.99;100473.91;429175;120;925665;-74
2021/07/01 02:20:33;;;;;;;7.11;5.08;;;;;;;21.17;66.92;100478.63;437558;118;932509;-76
2021/07/01 02:21:38;;;;;;;6.12;4.28;;;;;;;21.18;66.73;100480.29;436081;118;923103;-75
2021/07/01 02:22:43;;;;;;;6.51;4.48;;;;;;;21.18;66.54;100480.29;437946;118;924186;-75
2021/07/01 02:23:49;;;;;;;6.58;4.60;;;;;;;21.19;66.42;100484.73;436498;118;922741;-74
2021/07/01 02:24:52;;;;;;;5.38;4.77;;;;;;;21.20;66.28;100488.33;437178;118;922936;-75
2021/07/01 02:25:57;;;;;;;8.30;4.91;;;;;;;21.18;66.15;100485.84;429307;120;923300;-74
2021/07/01 02:27:00;;;;;;;6.03;4.45;;;;;;;21.18;66.11;100485.01;430711;120;923325;-75
2021/07/01 02:28:04;;;;;;;6.99;4.63;;;;;;;21.18;66.09;100474.75;437705;117;930557;-75
2021/07/01 02:29:08;;;;;;;12.02;4.95;;;;;;;21.17;66.06;100477.83;437256;118;922590;-75
2021/07/01 02:30:16;;;;;;;7.66;5.16;;;;;;;21.14;66.04;100481.99;436919;118;922626;-76
2021/07/01 02:31:20;;;;;;;6.76;4.68;;;;;;;21.09;66.07;100479.22;431366;120;922607;-75
2021/07/01 02:32:24;;;;;;;9.13;4.92;;;;;;;21.04;66.16;100482.03;427257;120;922586;-76
2021/07/01 02:33:28;;;;;;;12.74;5.39;;;;;;;21.00;66.29;100475.41;433790;119;922916;-76
2021/07/01 02:34:32;;;;;;;7.16;5.09;;;;;;;20.95;66.42;100480.15;432282;120;922541;-75
2021/07/01 02:35:40;;;;;;;6.28;4.70;;;;;;;20.91;66.53;100477.10;415279;124;922945;-76
2021/07/01 02:37:02;;;;;;;6.38;5.15;;;;;;;20.87;66.67;100480.73;438524;118;922959;-75
2021/07/01 02:38:20;;;;;;;8.72;4.73;;;;;;;20.80;66.82;100483.81;419724;122;923548;-75
2021/07/01 02:39:26;;;;;;;9.36;4.99;;;;;;;20.76;66.99;100483.56;424777;120;923205;-76
2021/07/01 02:40:31;;;;;;;5.38;4.56;;;;;;;20.75;67.10;100489.38;435649;118;922765;-75
2021/07/01 02:41:36;;;;;;;8.78;4.53;;;;;;;20.72;67.25;100487.19;437641;118;924601;-75
2021/07/01 02:42:41;;;;;;;5.44;4.78;;;;;;;20.69;67.38;100490.52;437780;118;924127;-75
2021/07/01 02:43:45;;;;;;;8.85;5.51;;;;;;;20.65;67.53;100487.48;439682;117;922558;-77
2021/07/01 02:44:56;;;;;;;8.65;5.47;;;;;;;20.64;67.73;100484.99;436084;117;924478;-75
2021/07/01 02:46:20;;;;;;;13.24;5.73;;;;;;;20.61;67.95;100486.41;438865;116;925407;-75
2021/07/01 02:47:26;;;;;;;7.27;5.63;;;;;;;20.61;68.20;100480.87;439252;116;924081;-75
2021/07/01 02:48:31;;;;;;;8.27;7.30;;;;;;;20.62;68.38;100487.23;440018;119;924447;-76
2021/07/01 02:49:35;;;;;;;10.81;7.44;;;;;;;20.65;68.46;100483.89;440482;117;923341;-75
2021/07/01 02:50:44;;;;;;;11.89;8.86;;;;;;;20.67;68.59;100481.67;439924;116;924559;-77
2021/07/01 02:51:48;;;;;;;8.64;7.88;;;;;;;20.71;68.64;100479.98;440993;116;924063;-77
2021/07/01 02:52:52;;;;;;;11.25;9.35;;;;;;;20.74;68.67;100479.41;438937;117;924187;-76
2021/07/01 02:53:56;;;;;;;14.33;10.56;;;;;;;20.77;68.74;100478.85;439974;117;925493;-77
2021/07/01 02:55:02;;;;;;;12.60;9.86;;;;;;;20.80;68.76;100476.33;432936;120;926784;-74
2021/07/01 02:56:07;;;;;;;12.74;11.04;;;;;;;20.83;68.79;100474.95;433294;119;925729;-76
2021/07/01 02:57:12;;;;;;;13.90;11.19;;;;;;;20.85;68.80;100471.86;434372;122;926014;-76
2021/07/01 02:58:18;;;;;;;14.33;11.64;;;;;;;20.87;68.75;100480.73;432586;119;925500;-74
2021/07/01 02:59:29;;;;;;;15.69;11.62;;;;;;;20.86;68.77;100474.36;430178;119;924525;-75
2021/07/01 03:00:43;;;;;;;17.20;12.73;;;;;;;20.85;68.84;100478.23;431610;119;924046;-77
2021/07/01 03:01:50;;;;;;;15.17;13.51;;;;;;;20.83;68.96;100474.95;417353;123;922769;-77
2021/07/01 03:02:55;;;;;;;22.53;13.75;;;;;;;20.83;69.08;100471.34;425074;121;927393;-73
2021/07/01 03:04:04;;;;;;;14.47;13.05;;;;;;;20.82;69.10;100470.51;415280;121;924313;-74
2021/07/01 03:05:08;;;;;;;14.43;11.04;;;;;;;20.83;69.16;100465.80;425916;121;923787;-76
2021/07/01 03:06:13;;;;;;;11.76;9.51;;;;;;;20.84;69.24;100468.27;433027;121;924026;-74
2021/07/01 03:07:17;;;;;;;12.96;8.83;;;;;;;20.86;69.13;100465.21;423375;122;924274;-76
2021/07/01 03:08:21;;;;;;;10.56;8.41;;;;;;;20.88;68.99;100468.54;433807;119;922865;-76
2021/07/01 03:09:26;;;;;;;10.10;7.48;;;;;;;20.88;68.77;100461.05;433043;119;924091;-74
2021/07/01 03:10:31;;;;;;;9.59;8.32;;;;;;;20.88;68.69;100463.00;434364;121;932043;-75
2021/07/01 03:11:36;;;;;;;12.82;7.88;;;;;;;20.88;68.72;100461.05;434109;119;922609;-75
2021/07/01 03:12:40;;;;;;;10.30;7.01;;;;;;;20.91;68.70;100463.24;434233;119;924112;-75
2021/07/01 03:13:44;;;;;;;8.12;6.87;;;;;;;20.97;68.64;100461.27;434910;119;926066;-76
2021/07/01 03:14:50;;;;;;;10.63;6.56;;;;;;;21.01;68.51;100468.72;434025;119;924091;-75
2021/07/01 03:15:54;;;;;;;8.62;6.78;;;;;;;21.05;68.41;100469.83;435314;119;924465;-77
2021/07/01 03:16:58;;;;;;;9.28;7.18;;;;;;;21.08;68.32;100468.41;434947;119;932122;-77
2021/07/01 03:18:02;;;;;;;13.82;7.00;;;;;;;21.10;68.23;100471.73;434844;119;925626;-75
2021/07/01 03:19:28;;;;;;;10.52;7.44;;;;;;;21.11;68.10;100470.63;415385;126;925450;-75
2021/07/01 03:20:50;;;;;;;11.08;7.24;;;;;;;21.15;68.18;100471.73;416011;125;925140;-75
2021/07/01 03:22:04;;;;;;;12.34;7.83;;;;;;;21.19;68.13;100467.26;416398;127;924145;-74
2021/07/01 03:23:08;;;;;;;14.49;9.50;;;;;;;21.23;68.09;100470.30;417044;125;923341;-75
2021/07/01 03:24:12;;;;;;;12.51;9.42;;;;;;;21.26;68.10;100475.27;417078;126;923092;-75
2021/07/01 03:25:16;;;;;;;11.20;9.65;;;;;;;21.29;68.07;100471.89;421086;119;922823;-75
2021/07/01 03:26:21;;;;;;;13.98;10.00;;;;;;;21.33;68.03;100470.23;433841;119;930083;-74
2021/07/01 03:27:26;;;;;;;17.65;11.18;;;;;;;21.37;68.02;100461.03;432328;119;922553;-75
2021/07/01 03:28:30;;;;;;;14.74;12.15;;;;;;;21.41;67.93;100461.27;433348;119;923218;-75
2021/07/01 03:29:34;;;;;;;15.77;11.70;;;;;;;21.44;67.88;100467.09;432764;119;922654;-76
2021/07/01 03:30:40;;;;;;;14.34;12.07;;;;;;;21.49;67.79;100468.98;426354;121;922694;-75
2021/07/01 03:31:44;;;;;;;18.06;11.81;;;;;;;21.51;67.70;100467.56;426244;121;922578;-76
2021/07/01 03:32:48;;;;;;;15.40;11.94;;;;;;;21.52;67.57;100463.68;433271;121;930264;-75
2021/07/01 03:33:51;;;;;;;19.12;12.56;;;;;;;21.52;67.43;100474.77;433209;119;922798;-76
2021/07/01 03:34:55;;;;;;;19.27;12.45;;;;;;;21.52;67.37;100474.77;433695;119;930987;-76
2021/07/01 03:36:03;;;;;;;22.36;17.21;;;;;;;21.51;67.36;100466.73;431697;119;922487;-76
2021/07/01 03:37:14;;;;;;;13.57;11.36;;;;;;;21.51;67.43;100473.11;411734;127;924616;-76
2021/07/01 03:38:36;;;;;;;14.14;11.53;;;;;;;21.52;67.49;100474.77;434475;119;924114;-75
2021/07/01 03:39:44;;;;;;;17.34;11.57;;;;;;;21.54;67.42;100471.72;433255;119;926618;-75
2021/07/01 03:40:50;;;;;;;12.01;10.79;;;;;;;21.57;67.43;100468.35;433378;119;924153;-77
2021/07/01 03:41:54;;;;;;;13.01;11.04;;;;;;;21.60;67.43;100468.62;436026;120;923072;-75
2021/07/01 03:42:58;;;;;;;12.59;10.30;;;;;;;21.62;67.42;100458.03;432417;119;924413;-76
2021/07/01 03:44:02;;;;;;;15.03;11.18;;;;;;;21.68;67.32;100466.31;433191;119;924112;-76
2021/07/01 03:45:06;;;;;;;16.51;11.27;;;;;;;21.69;67.20;100466.03;430972;120;931847;-74
2021/07/01 03:46:12;;;;;;;15.42;12.66;;;;;;;21.71;67.04;100471.30;428928;121;932939;-78
2021/07/01 03:47:16;;;;;;;15.06;12.26;;;;;;;21.70;66.97;100470.47;428653;121;924275;-76
2021/07/01 03:48:22;;;;;;;15.13;12.66;;;;;;;21.69;67.06;100479.91;431904;120;924230;-76
2021/07/01 03:49:39;;;;;;;17.65;12.78;;;;;;;21.68;67.19;100481.02;419065;123;924702;-74
2021/07/01 03:50:50;;;;;;;16.47;13.84;;;;;;;21.66;67.29;100479.67;415850;123;924163;-76
2021/07/01 03:51:56;;;;;;;20.20;14.49;;;;;;;21.66;67.43;100486.05;435072;118;924066;-77
2021/07/01 03:53:08;;;;;;;22.89;14.16;;;;;;;21.68;67.48;100480.19;436848;118;924287;-77
2021/07/01 03:54:12;;;;;;;16.95;14.23;;;;;;;21.68;67.52;100485.73;437001;118;922703;-76
2021/07/01 03:55:18;;;;;;;21.78;13.48;;;;;;;21.69;67.59;100491.01;437550;118;926268;-76
2021/07/01 03:56:23;;;;;;;20.21;13.88;;;;;;;21.69;67.68;100491.01;438422;118;924162;-73
2021/07/01 03:57:28;;;;;;;20.78;13.66;;;;;;;21.71;67.68;100497.11;437846;118;925703;-76
2021/07/01 03:58:32;;;;;;;23.12;13.97;;;;;;;21.72;67.70;100496.00;438692;118;926098;-73
2021/07/01 03:59:37;;;;;;;16.06;12.74;;;;;;;21.72;67.68;100490.45;436874;119;931996;-74
2021/07/01 04:00:59;;;;;;;18.73;13.59;;;;;;;21.74;67.77;100488.19;439124;117;925787;-76
2021/07/01 04:02:03;;;;;;;17.46;12.56;;;;;;;21.79;67.77;100481.76;438254;120;924074;-76
2021/07/01 04:03:08;;;;;;;19.83;12.67;;;;;;;21.82;67.86;100482.02;438955;117;932011;-76
2021/07/01 04:04:13;;;;;;;17.03;13.09;;;;;;;21.84;67.74;100482.54;436371;118;924820;-75
2021/07/01 04:05:17;;;;;;;14.52;12.84;;;;;;;21.88;67.50;100486.41;437509;117;926236;-76
2021/07/01 04:06:23;;;;;;;16.45;13.07;;;;;;;21.91;67.32;100490.53;437335;117;924532;-76
2021/07/01 04:07:28;;;;;;;18.55;12.01;;;;;;;21.91;67.23;100494.14;435748;118;922870;-74
2021/07/01 04:08:31;;;;;;;20.41;12.26;;;;;;;21.91;67.21;100493.31;440150;118;924622;-76
2021/07/01 04:09:35;;;;;;;12.66;11.38;;;;;;;21.92;67.12;100489.42;440359;117;931937;-76
2021/07/01 04:10:57;;;;;;;16.61;11.18;;;;;;;21.94;67.06;100498.30;436049;119;932737;-76
2021/07/01 04:12:02;;;;;;;15.59;11.92;;;;;;;21.96;67.00;100496.89;437875;118;924537;-77
2021/07/01 04:13:06;;;;;;;16.44;12.12;;;;;;;21.99;66.96;100492.72;429600;120;924596;-75
2021/07/01 04:14:17;;;;;;;14.52;11.35;;;;;;;22.00;66.87;100497.96;431147;118;924605;-73
2021/07/01 04:15:35;;;;;;;15.55;11.57;;;;;;;22.03;66.82;100491.84;433625;118;922704;-76
2021/07/01 04:16:56;;;;;;;12.78;11.59;;;;;;;22.04;66.76;100493.50;438524;118;922756;-75
2021/07/01 04:18:19;;;;;;;13.59;11.32;;;;;;;22.04;66.63;100496.28;439350;118;922611;-76
2021/07/01 04:19:41;;;;;;;19.90;11.39;;;;;;;22.06;66.57;100490.41;438597;120;922834;-76
2021/07/01 04:21:03;;;;;;;22.16;12.14;;;;;;;22.08;66.55;100490.12;438664;118;923212;-75
2021/07/01 04:22:25;;;;;;;12.87;11.53;;;;;;;22.10;66.66;100501.78;438854;118;922663;-76
2021/07/01 04:23:48;;;;;;;15.97;11.43;;;;;;;22.09;66.61;100506.50;439856;117;922533;-77
2021/07/01 04:25:06;;;;;;;15.30;12.49;;;;;;;22.08;66.53;100510.39;437330;118;922986;-76
2021/07/01 04:26:12;;;;;;;13.19;10.64;;;;;;;22.09;66.53;100505.67;436929;118;922542;-77
2021/07/01 04:27:19;;;;;;;12.26;10.71;;;;;;;22.09;66.53;100500.12;435134;118;922797;-75
2021/07/01 04:28:23;;;;;;;17.57;10.32;;;;;;;22.11;66.58;100503.44;433219;120;922555;-75
2021/07/01 04:29:28;;;;;;;14.93;10.37;;;;;;;22.11;66.67;100493.12;432905;119;924548;-75
2021/07/01 04:30:33;;;;;;;11.81;9.95;;;;;;;22.13;66.67;100507.56;436600;118;922485;-75
2021/07/01 04:31:51;;;;;;;17.49;10.79;;;;;;;22.15;66.67;100499.78;427263;122;923448;-75
2021/07/01 04:32:56;;;;;;;19.00;10.69;;;;;;;22.18;66.62;100510.28;432572;118;923147;-77
2021/07/01 04:34:00;;;;;;;15.33;10.64;;;;;;;22.21;66.65;100508.89;438605;118;923194;-77
2021/07/01 04:35:05;;;;;;;15.50;10.95;;;;;;;22.23;66.68;100513.01;438936;118;923985;-75
2021/07/01 04:36:09;;;;;;;16.02;10.65;;;;;;;22.27;66.79;100513.27;439436;117;923869;-75
2021/07/01 04:37:13;;;;;;;17.12;10.91;;;;;;;22.28;66.80;100503.78;437785;118;924040;-75
2021/07/01 04:38:19;;;;;;;13.81;11.38;;;;;;;22.31;66.76;100506.83;437085;118;932005;-77
2021/07/01 04:39:23;;;;;;;18.68;11.52;;;;;;;22.33;66.69;100504.56;438499;118;924073;-76
2021/07/01 04:40:35;;;;;;;15.30;10.85;;;;;;;22.36;66.67;100505.94;437125;118;924083;-76
2021/07/01 04:41:40;;;;;;;15.84;10.82;;;;;;;22.41;66.62;100508.66;439630;118;922772;-75
2021/07/01 04:42:44;;;;;;;15.52;9.97;;;;;;;22.44;66.50;100517.22;438316;118;924051;-75
2021/07/01 04:43:49;;;;;;;13.40;10.18;;;;;;;22.48;66.44;100509.14;438701;117;927294;-76
2021/07/01 04:44:53;;;;;;;18.17;10.21;;;;;;;22.51;66.36;100505.75;438754;120;926492;-76
2021/07/01 04:45:58;;;;;;;12.30;10.24;;;;;;;22.55;66.38;100500.45;439111;118;924223;-75
2021/07/01 04:47:03;;;;;;;13.88;10.04;;;;;;;22.60;66.38;100494.83;435864;118;924113;-76
2021/07/01 04:48:08;;;;;;;14.26;10.02;;;;;;;22.65;66.42;100494.77;437335;118;924508;-75
2021/07/01 04:49:12;;;;;;;11.33;10.17;;;;;;;22.68;66.41;100492.20;427065;121;926571;-77
2021/07/01 04:50:17;;;;;;;16.14;10.76;;;;;;;22.70;66.25;100492.75;428776;120;931656;-76
2021/07/01 04:51:40;;;;;;;16.61;10.68;;;;;;;22.72;66.18;100493.29;435983;117;923916;-79
2021/07/01 04:53:02;;;;;;;15.28;10.58;;;;;;;22.75;66.21;100501.05;436257;118;924526;-77
2021/07/01 04:54:23;;;;;;;16.34;10.50;;;;;;;22.77;66.24;100497.98;418590;125;926460;-77
2021/07/01 04:55:34;;;;;;;12.08;10.79;;;;;;;22.90;66.21;100496.41;471607;109;948630;-77
2021/07/01 04:56:45;;;;;;;13.79;10.76;;;;;;;22.81;66.26;100496.25;462761;113;925353;-78
2021/07/01 04:57:50;;;;;;;13.19;11.42;;;;;;;22.82;66.29;100482.03;461817;112;925010;-78
2021/07/01 04:58:54;;;;;;;14.98;11.08;;;;;;;22.84;66.39;100487.30;462380;112;926895;-78
2021/07/01 05:00:18;;;;;;;15.42;11.10;;;;;;;22.88;66.50;100488.35;459754;112;924089;-78
2021/07/01 05:01:43;;;;;;;23.58;11.12;;;;;;;22.92;66.46;100494.16;460393;112;923983;-77
2021/07/01 05:02:55;;;;;;;18.77;11.49;;;;;;;22.92;66.43;100494.16;433384;119;923028;-73